< Cyclone 197902 1979 Season Cyclone 197904 >
Cyclone 197903 (GORDON)
General InformationTrack Information on Google MapsList of All Images || ResourceGoogle EarthGE AnimationAtom FeedGeoJSON
Detalied Best Track (Time Zone = UTC)
Year Month Day Hour Lat. Long. Pressure (hPa) Wind (kt) Class Image Chart
1979 1 8 17 -19.5 162.6 988 0 0 Image --
1979 1 8 23 -19.5 160.6 990 0 0 Image --
1979 1 9 05 -19.4 158.8 990 0 0 Image --
1979 1 9 11 -19.3 157.0 990 0 0 Image --
1979 1 9 17 -19.2 155.4 990 0 0 Image --
1979 1 9 23 -19.2 154.5 992 0 0 Image --
1979 1 10 02 -19.2 154.4 992 0 0 Image --
1979 1 10 05 -19.2 154.4 992 0 0 Image --
1979 1 10 08 -19.2 154.4 993 0 0 Image --
1979 1 10 11 -19.3 154.3 995 0 0 Image --
1979 1 10 17 -19.4 153.3 997 0 0 Image --
1979 1 10 23 -19.4 152.1 1001 0 0 Image --
1979 1 11 02 -19.5 151.6 1001 0 0 Image --
1979 1 11 05 -19.7 151.2 1001 0 0 Image --
1979 1 11 08 -19.8 150.8 1001 0 0 Image --
1979 1 11 11 -19.8 150.3 1001 0 0 Image --
1979 1 11 14 -19.9 149.9 1001 0 0 Image --
1979 1 11 17 -20.1 149.5 1001 0 0 Image --
1979 1 11 20 -20.3 149.0 1001 0 0 Image --
1979 1 11 23 -20.5 148.5 1001 0 0 Image --
< Cyclone 197902 1979 Season Cyclone 197904 >

Help